Time;durP1;ratioP1;P1;durP2;ratioP2;P2;SDS_P1;SDS_P2;PMS_P1;PMS_P2;Temp;Humidity;BMP_temperature;BMP_pressure;BME280_temperature;BME280_humidity;BME280_pressure;Samples;Min_cycle;Max_cycle;Signal;HPM_P1;HPM_P2
2023/03/08 00:01:42;;;;;;;3.17;1.80;;;;;;;-0.17;100.00;96852.34;4156581;28;20059;-72
2023/03/08 00:03:43;;;;;;;3.63;2.30;;;;;;;-0.17;100.00;96846.13;4156288;28;20421;-72
2023/03/08 00:05:43;;;;;;;2.00;1.65;;;;;;;-0.17;100.00;96848.84;4156449;28;20054;-73
2023/03/08 00:07:43;;;;;;;2.10;1.55;;;;;;;-0.17;100.00;96852.34;4157368;28;20131;-73
2023/03/08 00:09:44;;;;;;;2.38;1.60;;;;;;;-0.21;100.00;96847.97;4157567;28;20041;-73
2023/03/08 00:11:44;;;;;;;3.30;1.83;;;;;;;-0.20;100.00;96860.41;4160040;28;20421;-73
2023/03/08 00:13:44;;;;;;;2.78;1.80;;;;;;;-0.22;100.00;96846.38;4160139;28;20508;-73
2023/03/08 00:15:45;;;;;;;3.85;2.13;;;;;;;-0.24;100.00;96846.75;4161457;28;20540;-73
2023/03/08 00:17:45;;;;;;;4.03;1.98;;;;;;;-0.23;100.00;96850.25;4159836;28;20065;-73
2023/03/08 00:19:45;;;;;;;2.58;1.92;;;;;;;-0.27;100.00;96847.41;4160373;28;20044;-73
2023/03/08 00:21:46;;;;;;;3.47;1.83;;;;;;;-0.27;100.00;96852.84;4160042;28;20037;-73
2023/03/08 00:23:46;;;;;;;2.58;1.73;;;;;;;-0.30;100.00;96853.56;4158988;28;20045;-73
2023/03/08 00:25:51;;;;;;;2.45;1.80;;;;;;;-0.30;100.00;96853.56;4159546;28;20049;-73
2023/03/08 00:27:52;;;;;;;2.50;1.90;;;;;;;-0.30;100.00;96854.34;4159848;28;20269;-73
2023/03/08 00:29:52;;;;;;;1.90;1.67;;;;;;;-0.27;100.00;96874.59;4159998;28;20084;-73
2023/03/08 00:31:52;;;;;;;2.33;1.60;;;;;;;-0.29;100.00;96880.38;4159840;28;20123;-73
2023/03/08 00:33:54;;;;;;;2.13;1.35;;;;;;;-0.30;100.00;96889.66;4159210;28;20542;-73
2023/03/08 00:36:18;;;;;;;2.70;1.80;;;;;;;-0.32;100.00;96896.59;4159989;28;20054;-73
2023/03/08 00:38:18;;;;;;;2.30;1.70;;;;;;;-0.32;100.00;96894.66;4157884;28;20038;-73
2023/03/08 00:40:19;;;;;;;3.03;1.80;;;;;;;-0.36;100.00;96899.19;4158957;28;20108;-73
2023/03/08 00:42:20;;;;;;;2.75;2.00;;;;;;;-0.36;100.00;96899.19;4156129;28;20047;-72
2023/03/08 00:44:20;;;;;;;3.35;2.10;;;;;;;-0.35;100.00;96883.69;4145779;28;20029;-72
2023/03/08 00:46:21;;;;;;;3.72;2.13;;;;;;;-0.35;100.00;96889.91;4159351;28;20129;-73
2023/03/08 00:48:21;;;;;;;3.65;2.22;;;;;;;-0.31;100.00;96881.88;4159323;28;20084;-73
2023/03/08 00:50:22;;;;;;;3.25;2.53;;;;;;;-0.31;100.00;96873.72;4159618;28;20155;-72
2023/03/08 00:52:22;;;;;;;3.35;2.38;;;;;;;-0.30;100.00;96872.56;4158634;28;20069;-73
2023/03/08 00:54:22;;;;;;;3.28;2.25;;;;;;;-0.26;100.00;96883.53;4159080;28;20128;-73
2023/03/08 00:56:23;;;;;;;3.10;2.25;;;;;;;-0.28;100.00;96892.81;4159646;28;20134;-73
2023/03/08 00:58:25;;;;;;;3.03;2.15;;;;;;;-0.25;100.00;96893.25;4159610;28;20073;-73
2023/03/08 01:00:26;;;;;;;;;;;;;;;-0.25;100.00;96890.56;4159921;28;20045;-73
2023/03/08 01:02:26;;;;;;;3.38;2.40;;;;;;;-0.28;100.00;96881.16;4158884;28;19921;-73
2023/03/08 01:04:26;;;;;;;3.13;2.47;;;;;;;-0.25;100.00;96891.34;4158103;28;20541;-73
2023/03/08 01:06:27;;;;;;;3.63;2.40;;;;;;;-0.27;100.00;96896.34;4159034;28;20152;-73
2023/03/08 01:08:27;;;;;;;3.92;2.30;;;;;;;-0.26;100.00;96891.69;4158798;28;20041;-72
2023/03/08 01:10:27;;;;;;;2.92;2.30;;;;;;;-0.24;100.00;96884.00;4159516;28;20315;-73
2023/03/08 01:12:28;;;;;;;3.35;2.17;;;;;;;-0.23;100.00;96886.38;4158887;28;20050;-73
2023/03/08 01:14:29;;;;;;;3.42;2.35;;;;;;;-0.26;100.00;96873.44;4158914;28;20124;-73
2023/03/08 01:16:32;;;;;;;2.70;2.03;;;;;;;-0.24;100.00;96884.78;4159313;28;20311;-72
2023/03/08 01:18:32;;;;;;;3.70;2.42;;;;;;;-0.24;100.00;96892.94;4159315;28;20535;-73
2023/03/08 01:20:32;;;;;;;4.15;2.85;;;;;;;-0.22;100.00;96892.59;4159181;28;20069;-73
2023/03/08 01:22:33;;;;;;;2.78;2.40;;;;;;;-0.24;100.00;96882.06;4157483;28;20046;-73
2023/03/08 01:24:33;;;;;;;3.10;2.30;;;;;;;-0.22;100.00;96881.72;4159040;28;20221;-72
2023/03/08 01:26:33;;;;;;;4.20;2.50;;;;;;;-0.24;100.00;96875.84;4159152;28;20041;-73
2023/03/08 01:28:34;;;;;;;3.85;2.83;;;;;;;-0.27;100.00;96885.47;4158638;28;20068;-73
2023/03/08 01:30:34;;;;;;;4.60;3.15;;;;;;;-0.25;100.00;96877.75;4159218;28;20045;-72
2023/03/08 01:32:36;;;;;;;4.43;2.92;;;;;;;-0.24;100.00;96881.28;4158378;28;20139;-73
2023/03/08 01:34:37;;;;;;;4.05;2.60;;;;;;;-0.25;100.00;96882.41;4158837;28;20061;-73
2023/03/08 01:36:37;;;;;;;3.83;2.92;;;;;;;-0.28;100.00;96881.97;4158381;28;20054;-73
2023/03/08 01:38:38;;;;;;;4.90;3.28;;;;;;;-0.27;100.00;96882.75;4158959;28;20111;-73
2023/03/08 01:40:38;;;;;;;5.97;3.63;;;;;;;-0.28;100.00;96870.28;4157775;28;20049;-73
2023/03/08 01:42:39;;;;;;;4.72;3.10;;;;;;;-0.30;100.00;96869.84;4157755;28;20470;-73
2023/03/08 01:44:55;;;;;;;4.65;3.40;;;;;;;-0.28;100.00;96868.38;4158777;28;20448;-73
2023/03/08 01:46:55;;;;;;;6.40;4.13;;;;;;;-0.29;100.00;96866.00;4158371;28;20474;-73
2023/03/08 01:48:58;;;;;;;5.70;3.78;;;;;;;-0.29;100.00;96868.72;4158317;28;20088;-73
2023/03/08 01:51:01;;;;;;;4.95;3.17;;;;;;;-0.31;100.00;96857.41;4158987;28;20072;-73
2023/03/08 01:53:02;;;;;;;4.85;3.50;;;;;;;-0.34;100.00;96864.31;4157973;28;20057;-73
2023/03/08 01:55:06;;;;;;;4.28;3.22;;;;;;;-0.31;100.00;96881.88;4158319;28;20589;-73
2023/03/08 01:57:21;;;;;;;5.95;4.00;;;;;;;-0.30;100.00;96878.81;4158497;28;20045;-72
2023/03/08 01:59:22;;;;;;;5.90;3.78;;;;;;;-0.30;100.00;96876.09;4158903;28;20084;-73
2023/03/08 02:01:23;;;;;;;6.32;3.20;;;;;;;-0.29;100.00;96879.59;4158240;28;20064;-73
2023/03/08 02:03:23;;;;;;;5.15;3.45;;;;;;;-0.31;100.00;96871.78;4157421;28;20144;-73
2023/03/08 02:05:26;;;;;;;6.13;3.85;;;;;;;-0.31;100.00;96871.00;4158244;28;20434;-73
2023/03/08 02:07:26;;;;;;;4.97;3.72;;;;;;;-0.36;100.00;96866.59;4158522;28;20052;-73
2023/03/08 02:09:27;;;;;;;6.30;4.10;;;;;;;-0.37;100.00;96864.22;4158317;28;20049;-73
2023/03/08 02:11:27;;;;;;;5.55;3.35;;;;;;;-0.38;100.00;96862.66;4158534;28;20405;-73
2023/03/08 02:13:27;;;;;;;5.70;3.53;;;;;;;-0.39;100.00;96866.50;4157696;28;20038;-73
2023/03/08 02:15:28;;;;;;;4.90;3.42;;;;;;;-0.41;100.00;96857.91;4157809;28;20389;-73
2023/03/08 02:17:29;;;;;;;4.32;3.33;;;;;;;-0.39;100.00;96867.28;4158233;28;20041;-73
2023/03/08 02:19:54;;;;;;;4.78;3.28;;;;;;;-0.37;100.00;96867.72;4157946;28;20513;-73
2023/03/08 02:21:55;;;;;;;5.65;3.30;;;;;;;-0.39;100.00;96864.56;4157055;28;20413;-73
2023/03/08 02:24:03;;;;;;;5.10;3.35;;;;;;;-0.39;100.00;96869.22;4157770;28;20258;-73
2023/03/08 02:26:04;;;;;;;4.50;2.95;;;;;;;-0.42;100.00;96870.69;4129333;28;20550;-73
2023/03/08 02:28:05;;;;;;;4.60;3.17;;;;;;;-0.41;100.00;96871.50;4158323;28;20076;-73
2023/03/08 02:30:06;;;;;;;4.57;3.03;;;;;;;-0.42;100.00;96867.97;4157804;28;20285;-73
2023/03/08 02:32:07;;;;;;;5.05;3.42;;;;;;;-0.46;100.00;96867.09;4158168;28;20112;-73
2023/03/08 02:34:07;;;;;;;3.78;2.83;;;;;;;-0.45;100.00;96876.81;4155766;28;20057;-73
2023/03/08 02:36:08;;;;;;;5.78;2.97;;;;;;;-0.46;100.00;96861.66;4158190;28;20032;-73
2023/03/08 02:38:11;;;;;;;5.15;3.53;;;;;;;-0.47;100.00;96851.91;4158450;28;20040;-73
2023/03/08 02:40:11;;;;;;;7.93;3.30;;;;;;;-0.48;100.00;96865.84;4157902;28;20025;-73
2023/03/08 02:42:12;;;;;;;4.13;2.88;;;;;;;-0.50;100.00;96866.19;4157835;28;20116;-73
2023/03/08 02:44:12;;;;;;;7.57;3.28;;;;;;;-0.50;100.00;96870.81;4157332;28;20048;-73
2023/03/08 02:46:13;;;;;;;7.07;3.83;;;;;;;-0.48;100.00;96871.28;4158151;28;20063;-73
2023/03/08 02:48:14;;;;;;;7.28;3.10;;;;;;;-0.54;100.00;96862.59;4157754;28;20091;-73
2023/03/08 02:50:15;;;;;;;6.05;2.90;;;;;;;-0.54;100.00;96859.88;4158109;28;20040;-73
2023/03/08 02:52:15;;;;;;;4.68;2.83;;;;;;;-0.52;100.00;96849.44;4157974;28;20493;-73
2023/03/08 02:54:16;;;;;;;5.30;3.33;;;;;;;-0.51;100.00;96850.22;4156032;28;20036;-73
2023/03/08 02:56:16;;;;;;;4.60;3.00;;;;;;;-0.53;100.00;96844.34;4158596;28;20053;-73
2023/03/08 02:58:16;;;;;;;4.93;3.17;;;;;;;-0.58;100.00;96837.22;4157893;28;20183;-73
2023/03/08 03:00:17;;;;;;;5.22;3.00;;;;;;;-0.59;100.00;96851.94;4157794;28;20038;-73
2023/03/08 03:02:18;;;;;;;4.45;3.17;;;;;;;-0.59;100.00;96854.66;4159206;28;20029;-73
2023/03/08 03:04:18;;;;;;;4.85;3.22;;;;;;;-0.56;100.00;96845.84;4157050;28;20432;-73
2023/03/08 03:06:19;;;;;;;5.07;3.13;;;;;;;-0.54;100.00;96854.44;4189376;28;20031;-73
2023/03/08 03:08:20;;;;;;;3.42;2.42;;;;;;;-0.54;100.00;96851.72;4157623;28;20363;-73
2023/03/08 03:10:20;;;;;;;5.25;3.20;;;;;;;-0.55;100.00;96852.06;4157629;28;20051;-73
2023/03/08 03:12:20;;;;;;;4.57;2.85;;;;;;;-0.55;100.00;96862.94;4157703;28;20057;-73
2023/03/08 03:14:21;;;;;;;4.38;2.95;;;;;;;-0.52;100.00;96848.66;4157056;28;20076;-73
2023/03/08 03:16:21;;;;;;;4.80;2.90;;;;;;;-0.43;100.00;96852.00;4157729;28;20550;-73
2023/03/08 03:18:21;;;;;;;4.30;2.88;;;;;;;-0.50;100.00;96854.53;4157331;28;20057;-73
2023/03/08 03:20:22;;;;;;;4.35;3.00;;;;;;;-0.50;100.00;96852.59;4157508;28;20095;-73
2023/03/08 03:22:23;;;;;;;4.07;2.45;;;;;;;-0.55;100.00;96846.63;4157080;28;20050;-73
2023/03/08 03:24:23;;;;;;;3.97;2.70;;;;;;;-0.60;100.00;96844.94;4156981;28;20044;-73
2023/03/08 03:26:24;;;;;;;3.28;2.63;;;;;;;-0.62;100.00;96849.94;4157756;28;20056;-73
2023/03/08 03:28:24;;;;;;;3.53;2.60;;;;;;;-0.61;100.00;96855.03;4157697;28;20372;-73
2023/03/08 03:30:24;;;;;;;4.00;2.65;;;;;;;-0.61;100.00;96852.31;4157829;28;20405;-73
2023/03/08 03:32:25;;;;;;;3.45;2.50;;;;;;;-0.63;100.00;96851.88;4156442;28;20041;-73
2023/03/08 03:34:26;;;;;;;4.30;2.28;;;;;;;-0.60;100.00;96843.00;4157379;28;20115;-73
2023/03/08 03:36:26;;;;;;;6.05;2.28;;;;;;;-0.61;100.00;96838.72;4157532;28;20091;-73
2023/03/08 03:38:27;;;;;;;3.45;2.42;;;;;;;-0.61;100.00;96836.00;4157844;28;20049;-73
2023/03/08 03:40:27;;;;;;;2.67;2.03;;;;;;;-0.58;100.00;96837.22;4157595;28;20056;-73
2023/03/08 03:42:28;;;;;;;4.00;2.22;;;;;;;-0.61;100.00;96836.00;4156848;28;20537;-73
2023/03/08 03:44:29;;;;;;;5.88;2.38;;;;;;;-0.62;100.00;96831.72;4189192;28;20039;-73
2023/03/08 03:46:30;;;;;;;4.90;2.10;;;;;;;-0.62;100.00;96831.72;4156957;28;20045;-73
2023/03/08 03:48:31;;;;;;;3.20;2.40;;;;;;;-0.63;100.00;96834.78;4160353;28;20393;-73
2023/03/08 03:50:31;;;;;;;5.30;2.38;;;;;;;-0.67;100.00;96839.31;4160529;28;20043;-73
2023/03/08 03:52:32;;;;;;;3.28;2.05;;;;;;;-0.62;100.00;96845.28;4157758;28;20493;-73
2023/03/08 03:54:32;;;;;;;3.38;2.17;;;;;;;-0.72;100.00;96831.41;4152818;28;20135;-73
2023/03/08 03:56:33;;;;;;;3.67;2.25;;;;;;;-0.80;100.00;96838.56;4158549;28;20053;-72
2023/03/08 03:58:33;;;;;;;4.65;2.50;;;;;;;-0.76;100.00;96839.44;4157969;28;20053;-73
2023/03/08 04:00:34;;;;;;;2.65;2.05;;;;;;;-0.82;100.00;96838.13;4158221;28;20053;-73
2023/03/08 04:02:34;;;;;;;2.90;2.15;;;;;;;-0.81;100.00;96841.63;4158017;28;20041;-73
2023/03/08 04:04:34;;;;;;;3.97;2.63;;;;;;;-0.88;100.00;96851.13;4159276;28;20567;-73
2023/03/08 04:06:35;;;;;;;3.50;2.45;;;;;;;-0.89;100.00;96846.84;4159314;28;20120;-73
2023/03/08 04:08:40;;;;;;;4.65;2.50;;;;;;;-0.90;100.00;96847.97;4159160;28;20044;-73
2023/03/08 04:10:41;;;;;;;2.95;2.50;;;;;;;-0.96;100.00;96851.28;4159291;28;20049;-73
2023/03/08 04:12:41;;;;;;;3.60;2.60;;;;;;;-0.95;100.00;96861.00;4158392;28;20809;-73
2023/03/08 04:14:42;;;;;;;4.28;2.78;;;;;;;-0.95;100.00;96861.00;4159154;28;20608;-73
2023/03/08 04:16:42;;;;;;;6.18;3.10;;;;;;;-0.98;100.00;96864.41;4158863;28;20037;-73
2023/03/08 04:18:42;;;;;;;4.78;3.33;;;;;;;-0.99;100.00;96870.97;4159118;28;20429;-72
2023/03/08 04:20:44;;;;;;;4.90;3.63;;;;;;;-1.01;100.00;96863.13;4159250;28;20080;-73
2023/03/08 04:22:44;;;;;;;11.43;5.85;;;;;;;-1.01;100.00;96875.91;4155585;28;20053;-73
2023/03/08 04:24:45;;;;;;;10.20;5.00;;;;;;;-1.05;100.00;96866.91;4159194;28;20649;-73
2023/03/08 04:26:45;;;;;;;6.00;3.70;;;;;;;-1.06;100.00;96873.47;4160023;28;20050;-73
2023/03/08 04:28:45;;;;;;;5.70;3.80;;;;;;;-1.05;100.00;96867.69;4155108;28;20066;-73
2023/03/08 04:30:46;;;;;;;5.82;3.47;;;;;;;-1.07;100.00;96863.75;4153582;28;20045;-73
2023/03/08 04:32:46;;;;;;;6.57;3.42;;;;;;;-1.05;100.00;96869.59;4148188;28;20071;-73
2023/03/08 04:34:46;;;;;;;6.15;3.30;;;;;;;-1.09;100.00;96863.25;4155784;28;20164;-73
2023/03/08 04:36:47;;;;;;;4.82;2.80;;;;;;;-1.07;100.00;96867.25;4156022;28;20463;-73
2023/03/08 04:38:48;;;;;;;4.82;3.20;;;;;;;-1.08;100.00;96849.34;4178681;28;20419;-73
2023/03/08 04:41:04;;;;;;;7.75;3.72;;;;;;;-1.05;100.00;96845.19;4159569;28;20049;-73
2023/03/08 04:43:04;;;;;;;6.80;3.67;;;;;;;-1.07;100.00;96858.31;4157795;28;20049;-73
2023/03/08 04:45:05;;;;;;;5.80;4.38;;;;;;;-1.07;100.00;96856.38;4157994;28;20401;-73
2023/03/08 04:47:05;;;;;;;7.45;4.13;;;;;;;-1.11;100.00;96857.41;4159000;28;20088;-73
2023/03/08 04:49:06;;;;;;;6.50;4.53;;;;;;;-1.11;100.00;96851.97;4159577;28;20474;-73
2023/03/08 04:51:08;;;;;;;8.50;4.35;;;;;;;-1.12;100.00;96859.31;4158946;28;20121;-73
2023/03/08 04:53:08;;;;;;;10.95;5.32;;;;;;;-1.07;100.00;96842.81;4189769;28;20101;-73
2023/03/08 04:55:08;;;;;;;14.48;7.95;;;;;;;-1.05;100.00;96842.47;4159251;28;20054;-73
2023/03/08 04:57:09;;;;;;;10.75;5.80;;;;;;;-1.04;100.00;96846.75;4158289;28;20404;-73
2023/03/08 04:59:09;;;;;;;10.63;5.70;;;;;;;-1.05;100.00;96837.81;4159279;28;20034;-73
2023/03/08 05:01:15;;;;;;;8.23;4.95;;;;;;;-1.02;100.00;96833.63;4159804;28;20478;-73
2023/03/08 05:03:15;;;;;;;6.35;4.40;;;;;;;-1.04;100.00;96835.91;4158751;28;20033;-73
2023/03/08 05:05:15;;;;;;;7.20;4.63;;;;;;;-1.03;100.00;96840.97;4159118;28;20064;-73
2023/03/08 05:07:16;;;;;;;10.15;4.45;;;;;;;-1.02;100.00;96845.28;4158241;28;20502;-73
2023/03/08 05:09:16;;;;;;;8.25;5.03;;;;;;;-1.04;100.00;96833.97;4159496;28;20458;-73
2023/03/08 05:11:20;;;;;;;6.03;4.07;;;;;;;-1.04;100.00;96833.19;4159035;28;20127;-73
2023/03/08 05:13:20;;;;;;;7.35;4.30;;;;;;;-1.03;100.00;96830.13;4158251;28;20048;-73
2023/03/08 05:15:22;;;;;;;7.65;4.68;;;;;;;-1.02;100.00;96828.19;4160278;28;20402;-73
2023/03/08 05:17:22;;;;;;;8.85;4.50;;;;;;;-1.04;100.00;96830.47;4159386;28;20120;-73
2023/03/08 05:19:23;;;;;;;7.10;4.35;;;;;;;-1.06;100.00;96827.31;4159396;28;20068;-73
2023/03/08 05:21:24;;;;;;;8.55;4.78;;;;;;;-1.07;100.00;96828.44;4157366;28;20053;-73
2023/03/08 05:23:26;;;;;;;7.93;4.75;;;;;;;-0.97;100.00;96836.13;4157426;28;20402;-73
2023/03/08 05:25:26;;;;;;;7.13;4.47;;;;;;;-1.02;100.00;96844.47;4159460;28;20253;-73
2023/03/08 05:27:31;;;;;;;9.85;6.20;;;;;;;-1.08;100.00;96837.69;4158857;28;20103;-73
2023/03/08 05:29:33;;;;;;;8.50;6.00;;;;;;;-1.11;100.00;96830.25;4157699;28;20378;-73
2023/03/08 05:31:35;;;;;;;9.95;5.60;;;;;;;-1.11;100.00;96827.53;4158423;28;20132;-73
2023/03/08 05:33:36;;;;;;;6.70;3.83;;;;;;;-1.11;100.00;96820.19;4158626;28;20064;-73
2023/03/08 05:35:36;;;;;;;9.02;5.93;;;;;;;-1.13;100.00;96825.16;4158764;28;20045;-73
2023/03/08 05:37:36;;;;;;;5.13;3.97;;;;;;;-1.17;100.00;96819.63;4158755;28;20140;-73
2023/03/08 05:39:37;;;;;;;5.68;4.18;;;;;;;-1.22;100.00;96816.38;4159023;28;20160;-73
2023/03/08 05:41:37;;;;;;;7.40;5.78;;;;;;;-1.25;100.00;96817.81;4158778;28;20045;-73
2023/03/08 05:43:37;;;;;;;6.45;4.80;;;;;;;-1.29;100.00;96822.38;4157316;28;20466;-73
2023/03/08 05:45:38;;;;;;;5.95;4.63;;;;;;;-1.30;100.00;96815.34;4159039;28;20061;-73
2023/03/08 05:47:38;;;;;;;5.65;4.50;;;;;;;-1.27;100.00;96816.59;4158027;28;20487;-73
2023/03/08 05:49:38;;;;;;;7.80;4.57;;;;;;;-1.27;100.00;96816.59;4158254;28;20393;-73
2023/03/08 05:51:39;;;;;;;5.78;3.78;;;;;;;-1.24;100.00;96821.31;4128421;28;20044;-72
2023/03/08 05:53:39;;;;;;;6.30;3.40;;;;;;;-1.24;100.00;96818.63;4159510;28;20052;-73
2023/03/08 05:55:40;;;;;;;5.25;3.00;;;;;;;-1.24;100.00;96814.00;4158516;28;20037;-73
2023/03/08 05:57:40;;;;;;;5.25;3.50;;;;;;;-1.24;100.00;96808.56;4156579;28;20466;-73
2023/03/08 05:59:40;;;;;;;4.18;3.05;;;;;;;-1.19;100.00;96816.47;4159863;28;20103;-73
2023/03/08 06:01:41;;;;;;;4.57;2.70;;;;;;;-1.20;100.00;96814.09;4158233;28;20084;-73
2023/03/08 06:03:44;;;;;;;3.70;2.75;;;;;;;-1.22;100.00;96800.09;4157673;28;20052;-73
2023/03/08 06:05:44;;;;;;;5.57;3.17;;;;;;;-1.21;100.00;96809.81;4157776;28;20419;-73
2023/03/08 06:07:44;;;;;;;7.60;3.58;;;;;;;-1.18;100.00;96809.13;4158142;28;20124;-73
2023/03/08 06:09:44;;;;;;;5.65;3.38;;;;;;;-1.19;100.00;96808.31;4157816;28;20537;-73
2023/03/08 06:11:45;;;;;;;9.60;5.20;;;;;;;-1.23;100.00;96815.59;4158161;28;20528;-73
2023/03/08 06:13:45;;;;;;;8.25;5.15;;;;;;;-1.24;100.00;96811.28;4157463;28;20064;-72
2023/03/08 06:15:45;;;;;;;5.18;3.50;;;;;;;-1.24;100.00;96811.28;4157841;28;20404;-72
2023/03/08 06:17:46;;;;;;;9.10;3.80;;;;;;;-1.22;100.00;96805.50;4157952;28;20053;-72
2023/03/08 06:19:46;;;;;;;5.82;4.10;;;;;;;-1.20;100.00;96820.31;4157925;28;20061;-72
2023/03/08 06:21:46;;;;;;;15.23;6.93;;;;;;;-1.20;100.00;96808.66;4158269;28;20120;-72
2023/03/08 06:23:47;;;;;;;13.68;7.32;;;;;;;-1.21;100.00;96816.03;4157277;28;20639;-73
2023/03/08 06:25:48;;;;;;;6.88;3.80;;;;;;;-1.14;100.00;96810.81;4157268;28;20529;-74
2023/03/08 06:27:48;;;;;;;6.88;3.65;;;;;;;-1.13;100.00;96814.31;4155441;28;20538;-73
2023/03/08 06:29:49;;;;;;;4.93;3.08;;;;;;;-1.14;100.00;96802.66;4157276;28;20045;-74
2023/03/08 06:31:50;;;;;;;4.70;3.00;;;;;;;-1.12;100.00;96810.47;4157002;28;20048;-73
2023/03/08 06:33:50;;;;;;;4.18;3.00;;;;;;;-1.06;100.00;96806.38;4154302;28;20045;-74
2023/03/08 06:35:54;;;;;;;3.35;2.50;;;;;;;-1.04;100.00;96809.53;4158713;28;20067;-74
2023/03/08 06:37:55;;;;;;;3.30;2.50;;;;;;;-1.03;100.00;96796.75;4157925;28;20068;-74
2023/03/08 06:39:55;;;;;;;3.28;2.47;;;;;;;-0.98;100.00;96804.69;4157847;28;20374;-74
2023/03/08 06:41:56;;;;;;;3.08;2.38;;;;;;;-0.98;100.00;96793.81;4157669;28;20345;-74
2023/03/08 06:43:56;;;;;;;4.00;2.63;;;;;;;-0.99;100.00;96786.81;4156383;28;20048;-74
2023/03/08 06:45:57;;;;;;;8.40;2.70;;;;;;;-1.01;100.00;96789.06;4157567;28;20044;-74
2023/03/08 06:47:57;;;;;;;3.85;2.60;;;;;;;-1.01;100.00;96791.78;4157581;28;20462;-74
2023/03/08 06:49:57;;;;;;;4.60;2.72;;;;;;;-0.99;100.00;96794.94;4157224;28;20486;-74
2023/03/08 06:51:58;;;;;;;9.38;4.47;;;;;;;-0.98;100.00;96791.88;4157514;28;20108;-74
2023/03/08 06:53:58;;;;;;;8.80;3.90;;;;;;;-0.97;100.00;96788.03;4156895;28;20162;-74
2023/03/08 06:56:01;;;;;;;24.83;10.73;;;;;;;-0.99;100.00;96790.31;4157224;28;20076;-74
2023/03/08 06:58:02;;;;;;;52.28;17.88;;;;;;;-0.96;100.00;96781.47;4157421;28;20046;-74
2023/03/08 07:00:03;;;;;;;44.10;14.18;;;;;;;-0.93;100.00;96785.41;4157736;28;20022;-74
2023/03/08 07:02:03;;;;;;;36.50;12.82;;;;;;;-0.90;100.00;96790.97;4157967;28;20026;-74
2023/03/08 07:04:04;;;;;;;20.73;8.43;;;;;;;-0.92;100.00;96787.00;4157131;28;20417;-74
2023/03/08 07:06:07;;;;;;;15.82;8.02;;;;;;;-0.87;100.00;96787.53;4157881;28;20063;-74
2023/03/08 07:08:08;;;;;;;11.45;5.65;;;;;;;-0.83;100.00;96776.00;4157801;28;20080;-74
2023/03/08 07:10:10;;;;;;;10.68;5.75;;;;;;;-0.78;100.00;96776.53;4157549;28;20034;-74
2023/03/08 07:12:10;;;;;;;11.45;6.18;;;;;;;-0.74;100.00;96766.59;4157906;28;20478;-74
2023/03/08 07:14:10;;;;;;;6.03;3.80;;;;;;;-0.67;100.00;96771.41;4157045;28;20108;-74
2023/03/08 07:16:12;;;;;;;6.63;3.85;;;;;;;-0.60;100.00;96772.38;4157399;28;20112;-74
2023/03/08 07:18:12;;;;;;;4.50;2.97;;;;;;;-0.54;100.00;96766.72;4158247;28;20522;-74
2023/03/08 07:20:15;;;;;;;7.85;3.85;;;;;;;-0.50;100.00;96764.88;4159358;28;20060;-74
2023/03/08 07:22:16;;;;;;;5.60;3.20;;;;;;;-0.43;100.00;96765.06;4161028;28;20029;-74
2023/03/08 07:24:16;;;;;;;4.13;3.47;;;;;;;-0.39;100.00;96761.31;4160143;28;20053;-74
2023/03/08 07:26:16;;;;;;;6.68;3.70;;;;;;;-0.34;100.00;96763.75;4161197;28;20107;-74
2023/03/08 07:28:17;;;;;;;9.40;4.28;;;;;;;-0.28;100.00;96769.75;4160911;28;20072;-74
2023/03/08 07:30:17;;;;;;;6.95;4.38;;;;;;;-0.24;100.00;96765.19;4160657;28;20025;-74
2023/03/08 07:32:18;;;;;;;5.32;3.25;;;;;;;-0.23;100.00;96763.28;4161175;28;20029;-73
2023/03/08 07:34:18;;;;;;;5.35;3.20;;;;;;;-0.20;100.00;96760.63;4159968;28;20029;-74
2023/03/08 07:36:18;;;;;;;3.85;2.65;;;;;;;-0.21;100.00;96753.63;4160871;28;20030;-74
2023/03/08 07:38:19;;;;;;;3.88;2.80;;;;;;;-0.18;100.00;96760.28;4161407;28;20454;-74
2023/03/08 07:40:19;;;;;;;4.60;2.60;;;;;;;-0.20;100.00;96746.25;4160318;28;20021;-74
2023/03/08 07:42:19;;;;;;;4.63;2.90;;;;;;;-0.22;100.00;96745.81;4160490;28;20033;-74
2023/03/08 07:44:20;;;;;;;4.90;3.20;;;;;;;-0.24;100.00;96740.75;4160452;28;20033;-74
2023/03/08 07:46:20;;;;;;;5.68;3.25;;;;;;;-0.30;100.00;96740.19;4160303;28;20049;-74
2023/03/08 07:48:20;;;;;;;5.40;2.85;;;;;;;-0.32;100.00;96738.97;4160525;28;20088;-74
2023/03/08 07:50:21;;;;;;;6.03;3.65;;;;;;;-0.37;100.00;96748.16;4160699;28;20092;-74
2023/03/08 07:52:27;;;;;;;5.68;3.95;;;;;;;-0.41;100.00;96749.22;4160543;28;20354;-74
2023/03/08 07:54:27;;;;;;;5.03;3.13;;;;;;;-0.39;100.00;96752.38;4159904;28;20484;-74
2023/03/08 07:56:28;;;;;;;5.78;3.15;;;;;;;-0.40;100.00;96751.59;4160357;28;20049;-74
2023/03/08 07:58:29;;;;;;;6.13;3.40;;;;;;;-0.37;100.00;96737.28;4160439;28;20113;-74
2023/03/08 08:00:29;;;;;;;5.72;3.10;;;;;;;-0.33;100.00;96731.97;4160787;28;20041;-74
2023/03/08 08:02:30;;;;;;;6.72;3.03;;;;;;;-0.28;100.00;96737.13;4159604;28;20121;-74
2023/03/08 08:04:33;;;;;;;6.40;4.15;;;;;;;-0.23;100.00;96733.38;4159986;28;20041;-74
2023/03/08 08:06:35;;;;;;;4.32;3.63;;;;;;;-0.22;100.00;96726.78;4160416;28;20045;-74
2023/03/08 08:08:35;;;;;;;4.50;3.50;;;;;;;-0.23;100.00;96730.66;4159989;28;20053;-74
2023/03/08 08:10:35;;;;;;;6.45;3.35;;;;;;;-0.22;100.00;96732.22;4160026;28;20046;-74
2023/03/08 08:12:36;;;;;;;5.65;3.90;;;;;;;-0.24;100.00;96724.44;4159470;28;20432;-74
2023/03/08 08:14:36;;;;;;;4.63;3.58;;;;;;;-0.21;100.00;96722.94;4160543;28;20053;-73
2023/03/08 08:16:36;;;;;;;4.72;3.65;;;;;;;-0.19;100.00;96724.16;4159911;28;20045;-74
2023/03/08 08:18:37;;;;;;;7.75;4.22;;;;;;;-0.21;100.00;96710.13;4160307;28;20041;-74
2023/03/08 08:20:37;;;;;;;13.10;4.85;;;;;;;-0.21;100.00;96721.00;4160475;28;20128;-74
2023/03/08 08:22:38;;;;;;;6.72;4.05;;;;;;;-0.20;100.00;96708.19;4159115;28;20535;-74
2023/03/08 08:24:38;;;;;;;7.45;4.47;;;;;;;-0.24;100.00;96702.69;4159934;28;20152;-74
2023/03/08 08:26:38;;;;;;;8.23;4.20;;;;;;;-0.24;100.00;96712.78;4160197;28;20545;-74
2023/03/08 08:28:40;;;;;;;7.07;4.45;;;;;;;-0.27;100.00;96706.09;4160220;28;20045;-74
2023/03/08 08:30:40;;;;;;;7.07;4.60;;;;;;;-0.29;100.00;96711.09;4159599;28;20041;-74
2023/03/08 08:32:43;;;;;;;11.23;6.10;;;;;;;-0.33;100.00;96697.44;4159194;28;20279;-74
2023/03/08 08:34:44;;;;;;;8.18;5.68;;;;;;;-0.34;100.00;96692.31;4160101;28;20041;-74
2023/03/08 08:36:44;;;;;;;8.68;5.80;;;;;;;-0.33;100.00;96677.63;4159392;28;20544;-74
2023/03/08 08:38:46;;;;;;;6.93;4.85;;;;;;;-0.32;100.00;96681.91;4159919;28;20081;-74
2023/03/08 08:40:47;;;;;;;7.75;4.55;;;;;;;-0.35;100.00;96682.59;4159631;28;20120;-74
2023/03/08 08:42:47;;;;;;;8.55;5.10;;;;;;;-0.30;100.00;96683.13;4159309;28;20045;-74
2023/03/08 08:44:47;;;;;;;6.93;4.88;;;;;;;-0.29;100.00;96679.25;4159417;28;20045;-74
2023/03/08 08:46:48;;;;;;;5.63;3.72;;;;;;;-0.34;100.00;96678.72;4159552;28;20394;-74
2023/03/08 08:48:48;;;;;;;6.07;4.25;;;;;;;-0.36;100.00;96678.28;4159950;28;20056;-74
2023/03/08 08:50:48;;;;;;;6.75;4.70;;;;;;;-0.33;100.00;96683.06;4159535;28;20060;-74
2023/03/08 08:52:48;;;;;;;6.65;4.07;;;;;;;-0.35;100.00;96671.72;4158539;28;20482;-74
2023/03/08 08:54:52;;;;;;;6.38;3.97;;;;;;;-0.32;100.00;96668.31;4159576;28;20517;-74
2023/03/08 08:56:52;;;;;;;7.55;3.60;;;;;;;-0.33;100.00;96659.38;4159812;28;20029;-74
2023/03/08 08:58:53;;;;;;;5.57;3.60;;;;;;;-0.29;100.00;96662.16;4159541;28;20045;-74
2023/03/08 09:00:53;;;;;;;4.28;3.13;;;;;;;-0.31;100.00;96656.31;4159373;28;20103;-74
2023/03/08 09:02:54;;;;;;;5.20;3.42;;;;;;;-0.32;100.00;96655.53;4159205;28;20107;-74
2023/03/08 09:04:54;;;;;;;4.38;3.28;;;;;;;-0.26;100.00;96653.31;4159391;28;20441;-74
2023/03/08 09:06:54;;;;;;;5.97;3.45;;;;;;;-0.30;100.00;96647.78;4158705;28;20440;-74
2023/03/08 09:08:57;;;;;;;8.70;4.93;;;;;;;-0.26;100.00;96657.94;4159562;28;20128;-74
2023/03/08 09:11:01;;;;;;;;;;;;;;;-0.23;100.00;96652.63;4159975;28;20147;-74
2023/03/08 09:13:01;;;;;;;6.15;4.25;;;;;;;-0.18;100.00;96649.63;4190637;28;19909;-74
2023/03/08 09:15:03;;;;;;;9.48;6.03;;;;;;;-0.13;100.00;96638.47;4159157;28;20052;-74
2023/03/08 09:17:05;;;;;;;7.45;4.97;;;;;;;-0.06;100.00;96632.44;4158915;28;20099;-74
2023/03/08 09:19:07;;;;;;;6.97;4.07;;;;;;;-0.04;100.00;96628.22;4159418;28;20129;-73
2023/03/08 09:21:07;;;;;;;9.10;4.50;;;;;;;0.02;100.00;96627.94;4158884;28;20045;-73
2023/03/08 09:23:08;;;;;;;4.80;3.33;;;;;;;0.04;100.00;96622.94;4158681;28;20441;-73